Time;durP1;ratioP1;P1;durP2;ratioP2;P2;SDS_P1;SDS_P2;PMS_P1;PMS_P2;Temp;Humidity;BMP_temperature;BMP_pressure;BME280_temperature;BME280_humidity;BME280_pressure;Samples;Min_cycle;Max_cycle;Signal;HPM_P1;HPM_P2
2023/09/30 00:01:22;;;;;;;10.95;5.22;;;;;;;10.53;100.00;102289.03;5071178;28;20059;-75
2023/09/30 00:03:48;;;;;;;11.52;5.00;;;;;;;10.44;100.00;102290.84;5070828;28;20044;-75
2023/09/30 00:06:14;;;;;;;13.60;5.68;;;;;;;10.48;100.00;102294.06;5070985;28;20476;-75
2023/09/30 00:08:41;;;;;;;15.05;5.13;;;;;;;10.48;100.00;102288.69;5068741;28;20031;-75
2023/09/30 00:11:07;;;;;;;14.15;5.57;;;;;;;10.52;100.00;102273.03;5036280;28;20559;-75
2023/09/30 00:13:32;;;;;;;13.32;5.38;;;;;;;10.55;100.00;102278.94;5069810;28;20032;-75
2023/09/30 00:15:59;;;;;;;12.85;5.28;;;;;;;10.58;100.00;102275.94;5071476;28;20040;-74
2023/09/30 00:18:25;;;;;;;12.27;5.00;;;;;;;10.60;100.00;102278.44;5073242;28;20028;-74
2023/09/30 00:20:50;;;;;;;9.88;4.90;;;;;;;10.58;100.00;102267.03;5074820;28;20032;-75
2023/09/30 00:23:16;;;;;;;10.98;4.80;;;;;;;10.61;100.00;102283.69;5070062;28;20036;-75
2023/09/30 00:25:42;;;;;;;14.50;5.20;;;;;;;10.60;100.00;102282.00;5068675;28;20045;-75
2023/09/30 00:28:08;;;;;;;10.63;4.63;;;;;;;10.63;100.00;102274.59;5068771;28;20036;-75
2023/09/30 00:30:33;;;;;;;13.45;5.00;;;;;;;10.63;100.00;102267.34;5071162;28;20376;-75
2023/09/30 00:32:59;;;;;;;11.82;4.80;;;;;;;10.61;100.00;102259.44;5052442;28;20028;-74
2023/09/30 00:35:25;;;;;;;12.77;4.63;;;;;;;10.64;100.00;102271.75;5072574;28;20115;-75
2023/09/30 00:37:53;;;;;;;11.98;4.88;;;;;;;10.63;100.00;102278.13;5052706;28;20043;-75
2023/09/30 00:40:18;;;;;;;10.38;4.53;;;;;;;10.70;100.00;102281.88;5046130;28;20410;-75
2023/09/30 00:42:43;;;;;;;9.32;4.65;;;;;;;10.69;100.00;102288.25;5071241;28;20461;-75
2023/09/30 00:45:10;;;;;;;11.65;4.35;;;;;;;10.65;100.00;102294.13;5051453;28;20032;-75
2023/09/30 00:47:36;;;;;;;14.18;5.28;;;;;;;10.65;100.00;102289.59;5070588;28;20041;-75
2023/09/30 00:50:03;;;;;;;9.63;4.57;;;;;;;10.60;100.00;102284.69;5050426;28;20106;-75
2023/09/30 00:52:31;;;;;;;11.50;4.68;;;;;;;10.65;100.00;102283.38;5054378;28;20511;-74
2023/09/30 00:54:58;;;;;;;12.18;4.75;;;;;;;10.61;100.00;102282.81;5072513;28;20090;-75
2023/09/30 00:57:24;;;;;;;9.40;4.63;;;;;;;10.60;100.00;102281.13;5071413;28;20071;-75
2023/09/30 00:59:50;;;;;;;16.25;5.13;;;;;;;10.51;100.00;102277.56;5069434;28;20055;-75
2023/09/30 01:02:15;;;;;;;11.63;5.10;;;;;;;10.63;100.00;102275.44;5036625;28;20032;-75
2023/09/30 01:04:42;;;;;;;12.48;4.93;;;;;;;10.64;100.00;102271.75;5035505;28;20376;-75
2023/09/30 01:07:08;;;;;;;11.43;4.93;;;;;;;10.63;100.00;102274.59;5071896;28;20025;-75
2023/09/30 01:09:36;;;;;;;13.20;4.78;;;;;;;10.58;100.00;102275.09;5071068;28;20102;-75
2023/09/30 01:12:02;;;;;;;10.95;5.10;;;;;;;10.59;100.00;102279.47;5046764;28;20027;-73
2023/09/30 01:14:28;;;;;;;12.13;5.05;;;;;;;10.61;100.00;102293.59;5092446;28;20024;-75
2023/09/30 01:16:54;;;;;;;12.45;4.78;;;;;;;10.55;100.00;102296.97;5076936;28;20095;-75
2023/09/30 01:19:20;;;;;;;11.35;4.80;;;;;;;10.59;100.00;102296.47;5071813;28;20020;-75
2023/09/30 01:21:48;;;;;;;14.10;5.28;;;;;;;10.61;100.00;102299.84;5072093;28;20020;-75
2023/09/30 01:24:17;;;;;;;12.95;5.60;;;;;;;10.57;100.00;102309.25;5051820;28;20096;-75
2023/09/30 01:26:42;;;;;;;14.00;5.57;;;;;;;10.54;100.00;102314.13;5074681;28;20468;-76
2023/09/30 01:29:11;;;;;;;12.20;5.15;;;;;;;10.56;100.00;102317.50;5071876;28;20035;-75
2023/09/30 01:31:37;;;;;;;14.40;5.68;;;;;;;10.54;100.00;102316.81;5071071;28;20260;-75
2023/09/30 01:34:02;;;;;;;13.02;5.82;;;;;;;10.51;100.00;102315.25;5052345;28;20105;-75
2023/09/30 01:36:28;;;;;;;14.20;5.55;;;;;;;10.51;100.00;102317.97;5071286;28;20468;-75
2023/09/30 01:38:53;;;;;;;12.13;5.70;;;;;;;10.48;100.00;102329.06;5069174;28;20020;-78
2023/09/30 01:41:19;;;;;;;13.18;5.38;;;;;;;10.46;100.00;102331.06;5070322;28;20020;-76
2023/09/30 01:43:44;;;;;;;12.68;5.28;;;;;;;10.46;100.00;102334.59;5069935;28;20062;-75
2023/09/30 01:46:10;;;;;;;14.63;5.88;;;;;;;10.48;100.00;102330.91;5070778;28;20029;-77
2023/09/30 01:48:38;;;;;;;11.68;5.85;;;;;;;10.43;100.00;102324.13;5069799;28;20021;-76
2023/09/30 01:51:03;;;;;;;16.33;6.13;;;;;;;10.34;100.00;102300.84;5065144;28;20381;-76
2023/09/30 01:53:28;;;;;;;15.43;5.80;;;;;;;10.12;100.00;102305.75;5068652;28;20118;-76
2023/09/30 01:55:54;;;;;;;13.30;5.55;;;;;;;9.96;100.00;102313.72;5052674;28;20075;-77
2023/09/30 01:58:22;;;;;;;15.90;6.10;;;;;;;10.05;100.00;102311.94;5052653;28;20127;-77
2023/09/30 02:00:48;;;;;;;11.30;5.70;;;;;;;10.11;100.00;102328.28;5070005;28;20041;-76
2023/09/30 02:03:13;;;;;;;18.98;6.20;;;;;;;10.19;100.00;102332.88;5051871;28;20033;-76
2023/09/30 02:05:40;;;;;;;13.07;5.70;;;;;;;10.22;100.00;102331.75;5068737;28;20043;-77
2023/09/30 02:08:06;;;;;;;12.32;5.70;;;;;;;10.21;100.00;102332.75;5068585;28;20024;-75
2023/09/30 02:10:33;;;;;;;10.85;5.55;;;;;;;10.20;100.00;102329.19;5069991;28;20119;-76
2023/09/30 02:12:59;;;;;;;13.98;5.93;;;;;;;10.20;100.00;102320.28;5069399;28;20496;-75
2023/09/30 02:15:25;;;;;;;16.13;6.35;;;;;;;10.20;100.00;102320.28;5069554;28;20039;-75
2023/09/30 02:17:50;;;;;;;15.20;5.80;;;;;;;10.15;100.00;102321.59;5070772;28;20017;-75
2023/09/30 02:20:19;;;;;;;13.38;6.30;;;;;;;10.21;100.00;102319.28;5071342;28;20491;-74
2023/09/30 02:22:44;;;;;;;13.23;6.20;;;;;;;10.18;100.00;102316.91;5075747;28;20076;-75
2023/09/30 02:25:12;;;;;;;13.10;6.43;;;;;;;10.17;100.00;102318.72;5072944;28;20092;-75
2023/09/30 02:30:13;;;;;;;14.82;6.40;;;;;;;10.22;100.00;102315.59;5408728;22;20507;-76
2023/09/30 02:32:40;;;;;;;17.55;6.85;;;;;;;10.22;100.00;102305.66;5077892;28;20028;-76
2023/09/30 02:35:06;;;;;;;8.77;6.13;;;;;;;10.08;100.00;102304.38;5096154;28;20163;-76
2023/09/30 02:37:35;;;;;;;14.07;6.70;;;;;;;10.11;100.00;102319.38;5097445;28;20056;-76
2023/09/30 02:40:04;;;;;;;16.58;7.00;;;;;;;10.04;100.00;102315.63;5095963;28;20040;-74
2023/09/30 02:42:29;;;;;;;15.43;7.07;;;;;;;10.06;100.00;102319.84;5079912;28;20130;-75
2023/09/30 02:44:55;;;;;;;14.07;6.65;;;;;;;10.06;100.00;102325.22;5097233;28;20178;-74
2023/09/30 02:47:20;;;;;;;14.07;6.80;;;;;;;10.11;100.00;102320.22;5097616;28;20028;-77
2023/09/30 02:49:47;;;;;;;16.23;7.60;;;;;;;10.12;100.00;102321.91;5095018;28;20048;-74
2023/09/30 02:52:16;;;;;;;12.95;7.10;;;;;;;10.08;100.00;102315.13;5094098;28;20031;-75
2023/09/30 02:54:42;;;;;;;16.75;7.35;;;;;;;10.05;100.00;102312.78;5093195;28;20028;-74
2023/09/30 02:57:09;;;;;;;13.73;7.25;;;;;;;10.08;100.00;102312.44;5101466;28;20028;-74
2023/09/30 02:59:37;;;;;;;14.25;6.88;;;;;;;10.10;100.00;102313.13;5110656;28;20032;-75
2023/09/30 03:02:04;;;;;;;15.68;7.32;;;;;;;10.11;100.00;102308.63;5105188;28;20032;-75
2023/09/30 03:04:30;;;;;;;15.52;7.68;;;;;;;10.11;100.00;102320.22;5094428;28;20016;-75
2023/09/30 03:06:56;;;;;;;15.43;7.90;;;;;;;10.10;100.00;102305.06;5091009;28;20407;-75
2023/09/30 03:09:22;;;;;;;18.65;8.10;;;;;;;10.10;100.00;102318.53;5091493;28;20019;-75
2023/09/30 03:11:50;;;;;;;17.85;8.38;;;;;;;10.07;100.00;102315.31;5090204;28;20032;-75
2023/09/30 03:14:15;;;;;;;16.80;8.07;;;;;;;10.09;100.00;102327.59;5066697;28;20055;-75
2023/09/30 03:16:41;;;;;;;16.27;8.07;;;;;;;10.11;100.00;102324.75;5092700;28;20806;-75
2023/09/30 03:19:11;;;;;;;15.93;7.95;;;;;;;10.13;100.00;102323.59;5094625;28;20035;-75
2023/09/30 03:21:37;;;;;;;15.90;8.05;;;;;;;10.05;100.00;102320.88;5093497;28;20042;-75
2023/09/30 03:24:04;;;;;;;15.75;8.05;;;;;;;9.99;100.00;102299.97;5091546;28;20417;-75
2023/09/30 03:26:29;;;;;;;19.48;8.60;;;;;;;9.98;100.00;102298.28;5090252;28;20024;-75
2023/09/30 03:28:55;;;;;;;16.05;8.65;;;;;;;9.92;100.00;102310.50;5110044;28;20067;-75
2023/09/30 03:31:20;;;;;;;17.08;8.55;;;;;;;9.94;100.00;102307.66;5083828;28;20088;-75
2023/09/30 03:33:47;;;;;;;14.73;9.13;;;;;;;9.99;100.00;102316.09;5094324;28;20024;-75
2023/09/30 03:36:13;;;;;;;15.50;8.98;;;;;;;10.06;100.00;102314.44;5090715;28;20420;-75
2023/09/30 03:38:39;;;;;;;18.75;8.38;;;;;;;10.08;100.00;102319.69;5091076;28;20036;-75
2023/09/30 03:41:08;;;;;;;17.02;8.45;;;;;;;10.09;100.00;102316.84;5092204;28;20032;-75
2023/09/30 03:43:35;;;;;;;16.40;8.75;;;;;;;10.11;100.00;102322.06;5088379;28;20490;-75
2023/09/30 03:46:06;;;;;;;19.83;8.95;;;;;;;10.11;100.00;102309.44;5089221;28;20024;-75
2023/09/30 03:48:32;;;;;;;15.48;8.10;;;;;;;10.08;100.00;102309.75;5092760;28;20475;-75
2023/09/30 03:50:57;;;;;;;16.92;8.57;;;;;;;10.08;100.00;102304.38;5091732;28;20114;-75
2023/09/30 03:53:26;;;;;;;16.77;8.88;;;;;;;10.03;100.00;102306.72;5089154;28;20024;-75
2023/09/30 03:55:53;;;;;;;17.00;9.00;;;;;;;10.01;100.00;102308.72;5088008;28;20020;-75
2023/09/30 03:58:19;;;;;;;14.18;9.05;;;;;;;10.02;100.00;102305.03;5090755;28;20379;-75
2023/09/30 04:00:45;;;;;;;16.25;8.77;;;;;;;10.00;100.00;102307.84;5090958;28;20168;-75
2023/09/30 04:03:12;;;;;;;17.60;8.98;;;;;;;10.02;100.00;102305.03;5091385;28;20085;-76
2023/09/30 04:05:38;;;;;;;17.15;9.43;;;;;;;10.04;100.00;102308.41;5063370;28;20047;-75
2023/09/30 04:08:04;;;;;;;18.08;9.65;;;;;;;9.98;100.00;102304.47;5089334;28;20028;-75
2023/09/30 04:10:30;;;;;;;15.52;8.93;;;;;;;10.00;100.00;102312.41;5091515;28;20031;-75
2023/09/30 04:12:55;;;;;;;18.65;9.13;;;;;;;10.00;100.00;102312.41;5091231;28;20024;-75
2023/09/30 04:15:22;;;;;;;17.27;9.73;;;;;;;10.00;100.00;102312.41;5089322;28;20067;-75
2023/09/30 04:17:48;;;;;;;17.40;9.52;;;;;;;9.99;100.00;102310.72;5090130;28;20468;-75
2023/09/30 04:20:21;;;;;;;16.30;9.23;;;;;;;10.02;100.00;102307.72;5092605;28;20039;-77
2023/09/30 04:22:48;;;;;;;22.60;10.10;;;;;;;9.99;100.00;102313.41;5090846;28;20104;-77
2023/09/30 04:25:16;;;;;;;17.85;10.25;;;;;;;10.06;100.00;102316.31;5091920;28;20117;-78
2023/09/30 04:27:44;;;;;;;18.15;10.07;;;;;;;10.05;100.00;102320.88;5091598;28;20031;-78
2023/09/30 04:30:15;;;;;;;15.02;9.55;;;;;;;10.10;100.00;102329.28;5092508;28;20036;-78
2023/09/30 04:32:40;;;;;;;15.45;10.05;;;;;;;10.13;100.00;102330.84;5087727;28;20024;-78
2023/09/30 04:35:07;;;;;;;15.65;9.85;;;;;;;10.15;100.00;102340.44;5087223;28;20038;-78
2023/09/30 04:37:33;;;;;;;17.75;10.57;;;;;;;10.15;100.00;102340.44;5088114;28;20051;-78
2023/09/30 04:39:59;;;;;;;17.17;10.95;;;;;;;10.22;100.00;102337.13;5090145;28;20043;-78
2023/09/30 04:42:25;;;;;;;16.65;10.10;;;;;;;10.28;100.00;102331.09;5091432;28;20027;-78
2023/09/30 04:44:52;;;;;;;13.65;10.15;;;;;;;10.30;100.00;102337.16;5089972;28;20050;-77
2023/09/30 04:47:18;;;;;;;17.55;10.65;;;;;;;10.30;100.00;102326.41;5091400;28;20111;-77
2023/09/30 04:49:44;;;;;;;19.98;10.93;;;;;;;10.31;100.00;102334.31;5092120;28;20180;-78
2023/09/30 04:52:10;;;;;;;18.08;10.85;;;;;;;10.33;100.00;102328.78;5091050;28;20123;-78
2023/09/30 04:54:35;;;;;;;18.25;10.93;;;;;;;10.38;100.00;102331.88;5089389;28;20468;-79
2023/09/30 04:57:02;;;;;;;20.73;11.00;;;;;;;10.39;100.00;102333.56;5085080;28;20051;-78
2023/09/30 04:59:30;;;;;;;16.48;10.55;;;;;;;10.42;100.00;102330.53;5090194;28;20077;-79
2023/09/30 05:01:56;;;;;;;17.30;11.25;;;;;;;10.40;100.00;102337.09;5089423;28;20120;-78
2023/09/30 05:04:25;;;;;;;18.50;10.25;;;;;;;10.42;100.00;102338.59;5091869;28;20051;-79
2023/09/30 05:07:06;;;;;;;18.90;11.70;;;;;;;10.40;100.00;102340.63;5091048;28;20044;-78
2023/09/30 05:09:41;;;;;;;16.65;10.82;;;;;;;10.43;100.00;102344.84;5092497;28;20541;-78
2023/09/30 05:12:15;;;;;;;18.42;11.95;;;;;;;10.41;100.00;102342.28;5091781;28;20032;-78
2023/09/30 05:14:48;;;;;;;19.30;11.60;;;;;;;10.35;100.00;102334.84;5093214;28;20031;-78
2023/09/30 05:17:13;;;;;;;18.17;11.38;;;;;;;10.41;100.00;102336.09;5087645;28;20115;-78
2023/09/30 05:19:38;;;;;;;20.90;11.38;;;;;;;10.41;100.00;102342.28;5075082;28;20027;-78
2023/09/30 05:22:05;;;;;;;17.77;10.93;;;;;;;10.43;100.00;102345.69;5092244;28;20460;-78
2023/09/30 05:24:30;;;;;;;18.15;10.65;;;;;;;10.41;100.00;102353.06;5092004;28;20423;-78
2023/09/30 05:26:56;;;;;;;17.05;10.88;;;;;;;10.37;100.00;102349.00;5091588;28;20032;-78
2023/09/30 05:29:22;;;;;;;21.45;11.88;;;;;;;10.38;100.00;102352.53;5091262;28;20040;-78
2023/09/30 05:31:47;;;;;;;16.25;11.77;;;;;;;10.39;100.00;102348.84;5092897;28;20039;-78
2023/09/30 05:34:14;;;;;;;19.13;11.88;;;;;;;10.37;100.00;102345.44;5093355;28;20046;-78
2023/09/30 05:36:39;;;;;;;18.88;11.75;;;;;;;10.35;100.00;102358.22;5092040;28;20141;-78
2023/09/30 05:39:06;;;;;;;18.88;12.07;;;;;;;10.31;100.00;102342.41;5091577;28;20051;-78
2023/09/30 05:41:32;;;;;;;15.80;11.10;;;;;;;10.27;100.00;102353.63;5092676;28;20032;-78
2023/09/30 05:43:58;;;;;;;24.25;13.02;;;;;;;10.29;100.00;102352.47;5092352;28;20438;-78
2023/09/30 05:46:24;;;;;;;21.17;12.55;;;;;;;10.28;100.00;102348.09;5090850;28;20037;-78
2023/09/30 05:48:51;;;;;;;18.73;12.82;;;;;;;10.28;100.00;102347.25;5090830;28;20042;-78
2023/09/30 05:51:18;;;;;;;21.02;12.68;;;;;;;10.29;100.00;102354.31;5092997;28;20131;-78
2023/09/30 05:53:44;;;;;;;20.48;12.77;;;;;;;10.38;100.00;102357.91;5095214;28;20095;-77
2023/09/30 05:56:11;;;;;;;19.58;12.73;;;;;;;10.49;100.00;102348.75;5096194;28;20038;-76
2023/09/30 05:58:37;;;;;;;18.20;11.98;;;;;;;10.62;100.00;102349.16;5095089;28;20084;-77
2023/09/30 06:01:07;;;;;;;18.45;12.13;;;;;;;10.68;100.00;102353.91;5101679;28;20036;-77
2023/09/30 06:03:39;;;;;;;17.25;11.98;;;;;;;10.75;100.00;102363.03;5089456;28;20032;-78
2023/09/30 06:06:15;;;;;;;17.15;11.23;;;;;;;10.89;100.00;102361.56;5103121;28;20475;-78
2023/09/30 06:08:41;;;;;;;17.20;11.27;;;;;;;11.02;100.00;102377.28;5094541;28;20069;-77
2023/09/30 06:11:06;;;;;;;17.52;11.63;;;;;;;11.17;100.00;102364.06;5091599;28;20032;-78
2023/09/30 06:13:35;;;;;;;18.10;11.98;;;;;;;11.18;100.00;102367.56;5092803;28;20043;-76
2023/09/30 06:16:02;;;;;;;17.65;11.65;;;;;;;11.50;100.00;102366.81;5095437;28;20396;-76
2023/09/30 06:18:27;;;;;;;12.02;9.32;;;;;;;11.82;100.00;102375.13;5099805;22;20046;-76
2023/09/30 06:20:53;;;;;;;12.73;9.73;;;;;;;11.90;100.00;102369.72;5092994;28;20036;-77
2023/09/30 06:25:43;;;;;;;13.57;9.60;;;;;;;11.96;100.00;102377.16;5098741;22;20056;-77
2023/09/30 06:28:17;;;;;;;12.90;9.70;;;;;;;11.91;100.00;102379.50;5084436;22;20419;-77
2023/09/30 06:30:52;;;;;;;13.05;9.23;;;;;;;11.88;100.00;102382.53;5075033;28;20583;-77
2023/09/30 06:36:13;;;;;;;13.00;9.52;;;;;;;11.97;100.00;102386.09;5081709;22;20091;-76
2023/09/30 06:39:05;;;;;;;14.50;9.55;;;;;;;12.08;100.00;102388.50;5135448;22;20154;-78
2023/09/30 06:41:30;;;;;;;14.32;9.02;;;;;;;12.29;100.00;102384.41;5080320;28;20040;-76
2023/09/30 06:43:56;;;;;;;12.95;9.10;;;;;;;12.94;100.00;102387.97;5093266;28;20042;-75
2023/09/30 06:46:23;;;;;;;13.32;8.95;;;;;;;13.60;100.00;102386.81;5093797;28;20479;-76
2023/09/30 06:48:52;;;;;;;12.95;8.55;;;;;;;13.96;96.54;102391.63;5089993;28;20389;-75
2023/09/30 06:51:17;;;;;;;13.88;9.05;;;;;;;14.68;92.89;102387.56;5083025;28;20020;-78
2023/09/30 06:53:45;;;;;;;13.73;9.52;;;;;;;15.27;88.84;102390.41;5093065;28;20333;-75
2023/09/30 06:56:11;;;;;;;12.50;8.52;;;;;;;15.90;83.02;102396.13;5093228;28;20038;-75
2023/09/30 06:58:36;;;;;;;12.52;8.95;;;;;;;16.18;81.29;102403.47;5092555;28;20376;-76
2023/09/30 07:01:07;;;;;;;12.70;8.60;;;;;;;16.47;78.96;102403.50;5095613;28;20308;-75
2023/09/30 07:03:36;;;;;;;13.77;8.57;;;;;;;16.21;80.08;102407.66;5101085;28;20052;-75
2023/09/30 07:06:05;;;;;;;12.48;7.95;;;;;;;15.93;80.88;102418.50;5101591;28;20020;-75
2023/09/30 07:08:30;;;;;;;11.18;8.25;;;;;;;15.53;83.04;102411.59;5094188;28;20043;-75
2023/09/30 07:10:56;;;;;;;15.68;9.48;;;;;;;15.16;84.70;102413.47;5091386;28;20020;-75
2023/09/30 07:13:21;;;;;;;15.13;9.13;;;;;;;15.06;85.16;102413.75;5091510;28;20488;-75
2023/09/30 07:15:47;;;;;;;13.50;9.00;;;;;;;15.01;86.14;102417.00;5092398;28;20050;-75
2023/09/30 07:18:15;;;;;;;12.40;8.60;;;;;;;15.73;83.45;102419.09;5093210;28;20034;-76
2023/09/30 07:20:41;;;;;;;11.82;7.97;;;;;;;16.92;77.64;102442.03;5091950;28;20028;-76
2023/09/30 07:23:08;;;;;;;12.77;9.05;;;;;;;17.68;74.00;102445.72;5092007;28;20387;-76
2023/09/30 07:25:34;;;;;;;12.73;8.55;;;;;;;18.39;69.98;102446.28;5092176;28;20036;-75
2023/09/30 07:28:01;;;;;;;11.80;8.18;;;;;;;18.87;67.85;102444.31;5090895;28;20039;-76
2023/09/30 07:30:27;;;;;;;11.23;8.45;;;;;;;19.28;65.53;102442.28;5091499;28;20434;-76
2023/09/30 07:32:52;;;;;;;13.60;8.43;;;;;;;19.40;63.32;102451.50;5094239;28;20059;-76
2023/09/30 07:35:17;;;;;;;14.45;9.45;;;;;;;19.06;65.75;102454.34;5093481;28;20044;-75
2023/09/30 07:37:51;;;;;;;12.43;7.78;;;;;;;20.29;61.93;102456.22;5091486;28;20032;-76
2023/09/30 07:40:17;;;;;;;11.02;8.27;;;;;;;19.95;63.03;102444.69;5096805;28;20039;-76
2023/09/30 07:42:44;;;;;;;10.35;7.47;;;;;;;19.80;65.10;102448.53;5091037;28;20099;-76
2023/09/30 07:45:16;;;;;;;13.45;8.40;;;;;;;20.60;60.29;102459.94;5089901;28;20032;-76
2023/09/30 07:47:43;;;;;;;12.45;7.80;;;;;;;20.45;60.75;102455.66;5091633;28;20051;-76
2023/09/30 07:50:09;;;;;;;11.10;7.55;;;;;;;20.84;59.82;102454.66;5091204;28;20069;-76
2023/09/30 07:52:36;;;;;;;11.93;7.65;;;;;;;21.51;57.56;102467.56;5089669;28;20434;-76
2023/09/30 07:55:01;;;;;;;11.07;7.82;;;;;;;21.49;57.57;102465.03;5094178;28;20542;-76
2023/09/30 07:57:26;;;;;;;10.38;7.53;;;;;;;21.39;57.19;102469.41;5087039;28;20020;-76
2023/09/30 07:59:52;;;;;;;9.75;8.25;;;;;;;21.53;57.21;102465.44;5087754;28;20012;-76
2023/09/30 08:02:19;;;;;;;10.05;7.22;;;;;;;22.15;56.39;102475.31;5087687;28;20036;-75
2023/09/30 08:04:44;;;;;;;10.60;8.07;;;;;;;22.82;53.28;102476.91;5089464;28;20047;-75
2023/09/30 08:07:10;;;;;;;12.85;7.50;;;;;;;23.14;52.60;102473.75;5082945;28;20027;-76
2023/09/30 08:09:37;;;;;;;12.55;7.10;;;;;;;23.47;51.79;102477.72;5090809;28;20047;-76
2023/09/30 08:12:02;;;;;;;10.40;6.70;;;;;;;23.43;51.46;102476.59;5077622;28;20510;-74
2023/09/30 08:14:28;;;;;;;10.27;7.38;;;;;;;22.83;53.76;102484.06;5089639;28;20111;-75
2023/09/30 08:16:53;;;;;;;8.40;6.60;;;;;;;23.12;53.80;102475.91;5084618;28;20408;-75
2023/09/30 08:19:20;;;;;;;12.23;8.13;;;;;;;22.79;52.92;102487.53;5089677;28;20042;-75
2023/09/30 08:21:47;;;;;;;7.90;6.47;;;;;;;23.14;51.76;102490.22;5089383;28;20450;-75
2023/09/30 08:24:12;;;;;;;9.73;6.82;;;;;;;22.78;52.59;102494.94;5090830;28;20016;-75
2023/09/30 08:26:38;;;;;;;13.00;7.65;;;;;;;21.54;57.23;102488.19;5088162;28;20340;-75
2023/09/30 08:29:03;;;;;;;11.57;7.78;;;;;;;20.68;60.55;102487.00;5088755;28;20032;-75
2023/09/30 08:31:29;;;;;;;12.32;7.38;;;;;;;21.93;56.75;102484.06;5090763;28;20020;-75
2023/09/30 08:33:54;;;;;;;8.80;6.20;;;;;;;21.92;57.20;102489.78;5089607;28;20027;-75
2023/09/30 08:36:19;;;;;;;12.55;7.72;;;;;;;21.51;58.79;102479.34;5090138;28;20031;-75
2023/09/30 08:38:46;;;;;;;10.68;6.65;;;;;;;23.54;52.89;102480.38;5090580;28;20048;-74
2023/09/30 08:41:22;;;;;;;10.82;6.55;;;;;;;23.99;50.45;102473.25;5089266;28;20050;-74
2023/09/30 08:43:50;;;;;;;11.75;7.63;;;;;;;23.31;52.31;102473.88;5070574;28;20024;-75
2023/09/30 08:46:16;;;;;;;12.65;7.05;;;;;;;24.02;51.35;102469.97;5073859;28;20036;-74
2023/09/30 08:48:43;;;;;;;11.50;7.80;;;;;;;24.16;49.88;102467.75;5090359;28;20032;-74
2023/09/30 08:51:08;;;;;;;9.43;6.78;;;;;;;24.37;49.32;102463.38;5074719;28;20040;-74
2023/09/30 08:53:36;;;;;;;9.88;6.88;;;;;;;24.12;50.28;102465.75;5074103;28;20020;-75
2023/09/30 08:56:06;;;;;;;13.27;7.35;;;;;;;23.01;53.45;102458.41;5088479;28;20475;-74
2023/09/30 08:58:32;;;;;;;9.23;6.72;;;;;;;24.49;49.09;102456.97;5071008;28;20043;-74
2023/09/30 09:00:57;;;;;;;11.00;6.70;;;;;;;24.67;48.69;102455.84;5091366;28;20055;-75
2023/09/30 09:03:23;;;;;;;12.85;7.57;;;;;;;23.02;53.07;102456.47;5089408;28;20016;-74
2023/09/30 09:05:57;;;;;;;11.25;7.30;;;;;;;23.91;50.78;102455.19;5088809;28;20517;-74
2023/09/30 09:08:26;;;;;;;10.40;6.70;;;;;;;24.07;51.24;102464.56;5081697;28;20035;-74
2023/09/30 09:10:56;;;;;;;10.35;7.60;;;;;;;24.04;50.42;102458.72;5089765;28;20123;-75
2023/09/30 09:13:21;;;;;;;9.35;7.00;;;;;;;22.93;54.39;102466.16;5089888;28;20104;-75
2023/09/30 09:15:49;;;;;;;10.68;6.78;;;;;;;23.26;53.27;102471.00;5089739;28;20016;-75
2023/09/30 09:18:35;;;;;;;9.57;6.85;;;;;;;23.91;51.12;102466.22;5088611;28;20074;-75
2023/09/30 09:21:23;;;;;;;9.82;6.97;;;;;;;24.17;49.08;102463.09;5089249;28;20024;-75
2023/09/30 09:23:50;;;;;;;11.35;6.90;;;;;;;24.85;48.58;102463.03;5086700;28;20028;-75
2023/09/30 09:26:18;;;;;;;9.35;6.03;;;;;;;24.73;48.72;102459.53;5087616;28;20373;-75
2023/09/30 09:28:43;;;;;;;11.27;6.85;;;;;;;24.49;48.70;102459.72;5071506;28;20035;-75
2023/09/30 09:31:24;;;;;;;10.60;6.13;;;;;;;24.93;47.63;102448.78;5089331;28;20024;-75
2023/09/30 09:33:50;;;;;;;13.52;7.00;;;;;;;23.10;51.36;102456.09;5089982;28;20020;-75
2023/09/30 09:36:16;;;;;;;10.40;6.40;;;;;;;22.76;53.79;102460.56;5086956;28;20046;-74
2023/09/30 09:38:46;;;;;;;14.63;7.45;;;;;;;22.17;55.88;102464.09;5094136;28;20032;-74
2023/09/30 09:41:11;;;;;;;10.80;7.00;;;;;;;22.98;52.97;102469.00;5093964;28;20040;-75
2023/09/30 09:43:37;;;;;;;9.88;6.78;;;;;;;22.83;53.76;102473.09;5073168;28;20129;-75
2023/09/30 09:46:07;;;;;;;9.52;6.32;;;;;;;22.12;56.25;102467.53;5094800;28;20165;-75
2023/09/30 09:48:34;;;;;;;9.52;5.88;;;;;;;24.10;49.60;102478.91;5093330;28;20024;-74
2023/09/30 09:51:03;;;;;;;12.55;6.75;;;;;;;23.35;51.10;102484.38;5093786;28;20421;-75
2023/09/30 09:53:30;;;;;;;12.25;6.50;;;;;;;22.67;53.12;102491.16;5077146;28;20044;-74
2023/09/30 09:55:56;;;;;;;12.55;5.90;;;;;;;22.62;53.76;102501.13;5092791;28;20096;-74
2023/09/30 09:58:22;;;;;;;10.80;6.32;;;;;;;21.52;57.15;102496.66;5057293;28;20036;-75
2023/09/30 10:00:48;;;;;;;10.48;6.05;;;;;;;21.60;57.17;102492.75;5072693;28;20032;-75
2023/09/30 10:03:13;;;;;;;9.60;5.60;;;;;;;22.95;52.75;102484.06;5070845;28;20028;-73
2023/09/30 10:05:39;;;;;;;10.20;5.70;;;;;;;23.35;51.71;102485.19;5091153;28;20030;-73
2023/09/30 10:08:10;;;;;;;9.50;6.22;;;;;;;24.05;49.59;102494.22;5092880;28;20036;-74
2023/09/30 10:10:37;;;;;;;12.05;6.25;;;;;;;24.18;49.74;102503.28;5076525;28;20044;-75
2023/09/30 10:13:03;;;;;;;10.70;6.50;;;;;;;23.17;51.47;102500.75;5094263;28;20044;-76
2023/09/30 10:15:28;;;;;;;11.18;6.43;;;;;;;23.38;51.73;102487.47;5115273;28;20024;-76
2023/09/30 10:18:04;;;;;;;11.13;6.30;;;;;;;23.27;52.93;102482.84;5101233;28;20109;-75
2023/09/30 10:20:33;;;;;;;11.18;5.85;;;;;;;24.12;50.11;102487.75;5096287;28;20313;-76
2023/09/30 10:23:17;;;;;;;9.32;5.80;;;;;;;23.68;51.36;102489.13;5077326;28;20097;-75
2023/09/30 10:25:47;;;;;;;11.88;6.25;;;;;;;24.92;47.07;102490.38;5094303;28;20032;-75
2023/09/30 10:28:46;;;;;;;9.70;6.03;;;;;;;24.93;47.38;102498.38;5100740;28;20027;-75
2023/09/30 10:31:24;;;;;;;7.72;4.95;;;;;;;24.28;49.76;102514.44;5099628;28;20074;-75
2023/09/30 10:34:02;;;;;;;10.68;5.55;;;;;;;24.56;49.40;102520.94;5095301;28;20048;-75
2023/09/30 10:36:32;;;;;;;9.13;5.63;;;;;;;24.86;47.62;102513.41;5095688;28;20652;-75
2023/09/30 10:38:57;;;;;;;9.13;5.53;;;;;;;24.45;49.09;102508.91;5095166;28;20044;-76
2023/09/30 10:41:41;;;;;;;11.10;6.05;;;;;;;23.11;50.78;102496.22;5092659;28;20551;-76
2023/09/30 10:44:25;;;;;;;10.90;5.47;;;;;;;21.39;56.31;102483.94;5094479;28;20028;-75
2023/09/30 10:46:51;;;;;;;12.48;5.60;;;;;;;20.76;58.69;102488.63;5086999;28;20032;-75
2023/09/30 10:49:23;;;;;;;10.88;5.05;;;;;;;21.60;57.31;102481.78;5093947;28;20030;-75
2023/09/30 10:51:52;;;;;;;10.25;5.32;;;;;;;23.31;52.74;102486.75;5091740;28;20126;-75
2023/09/30 10:54:30;;;;;;;10.25;4.90;;;;;;;24.66;48.16;102471.53;5092690;28;20052;-75
2023/09/30 10:56:58;;;;;;;9.05;4.80;;;;;;;23.21;51.85;102470.06;5092849;28;20278;-76
2023/09/30 10:59:25;;;;;;;13.60;4.90;;;;;;;23.28;50.13;102463.34;5093890;28;20111;-76
2023/09/30 11:01:52;;;;;;;10.05;4.53;;;;;;;22.94;50.56;102462.34;5092139;28;20027;-75
2023/09/30 11:04:28;;;;;;;10.05;4.30;;;;;;;21.97;53.55;102462.53;5070548;22;20137;-77
2023/09/30 11:06:53;;;;;;;7.85;3.75;;;;;;;23.43;50.31;102460.09;5084507;28;20086;-76
2023/09/30 11:09:22;;;;;;;9.43;3.75;;;;;;;23.51;48.10;102455.25;5073799;28;20025;-75
2023/09/30 11:11:48;;;;;;;11.85;4.63;;;;;;;22.90;50.29;102450.16;5071353;28;20481;-75
2023/09/30 11:14:17;;;;;;;8.68;3.97;;;;;;;23.09;50.88;102454.44;5074270;28;20016;-75
2023/09/30 11:16:43;;;;;;;10.55;4.30;;;;;;;23.10;49.03;102469.00;5068605;28;20043;-75
2023/09/30 11:19:09;;;;;;;10.63;3.85;;;;;;;21.65;54.34;102470.97;5071704;28;20042;-76
2023/09/30 11:21:35;;;;;;;11.18;3.97;;;;;;;20.85;58.24;102467.28;5074012;28;20027;-75